createdAt,value
2018-04-13T00:01:04.019Z,31.80
2018-04-13T00:03:30.438Z,29.77
2018-04-13T00:05:56.981Z,24.17
2018-04-13T00:08:23.372Z,39.70
2018-04-13T00:10:49.762Z,30.60
2018-04-13T00:13:16.159Z,25.40
2018-04-13T00:15:43.292Z,26.57
2018-04-13T00:18:10.443Z,37.87
2018-04-13T00:20:37.618Z,31.53
2018-04-13T00:23:04.038Z,28.67
2018-04-13T00:25:30.431Z,23.03
2018-04-13T00:27:56.818Z,25.67
2018-04-13T00:30:23.242Z,33.77
2018-04-13T00:32:49.706Z,26.73
2018-04-13T00:35:16.107Z,33.03
2018-04-13T00:37:42.502Z,26.17
2018-04-13T00:40:08.887Z,25.00
2018-04-13T00:42:35.292Z,27.10
2018-04-13T00:45:02.477Z,21.50
2018-04-13T00:47:28.895Z,29.03
2018-04-13T00:49:55.290Z,19.90
2018-04-13T00:52:21.686Z,22.07
2018-04-13T00:54:48.071Z,23.17
2018-04-13T00:57:15.225Z,27.73
2018-04-13T00:59:42.396Z,20.40
2018-04-13T01:02:08.804Z,18.43
2018-04-13T01:04:35.953Z,25.27
2018-04-13T01:07:03.110Z,25.43
2018-04-13T01:09:30.301Z,21.27
2018-04-13T01:11:56.721Z,23.00
2018-04-13T01:14:23.116Z,25.60
2018-04-13T01:16:50.264Z,36.33
2018-04-13T01:19:17.416Z,28.33
2018-04-13T01:21:44.550Z,21.43
2018-04-13T01:24:10.937Z,24.87
2018-04-13T01:26:38.131Z,29.30
2018-04-13T01:29:04.576Z,33.73
2018-04-13T01:31:30.981Z,25.60
2018-04-13T01:33:57.352Z,25.53
2018-04-13T01:36:24.551Z,21.93
2018-04-13T01:38:50.955Z,32.93
2018-04-13T01:41:17.342Z,20.00
2018-04-13T01:43:43.726Z,22.33
2018-04-13T01:46:10.124Z,24.13
2018-04-13T01:48:36.514Z,28.50
2018-04-13T01:51:02.892Z,21.57
2018-04-13T01:53:30.018Z,26.10
2018-04-13T01:55:56.428Z,22.63
2018-04-13T01:58:22.888Z,24.10
2018-04-13T02:00:49.272Z,35.20
2018-04-13T02:03:15.674Z,22.53
2018-04-13T02:05:42.830Z,27.83
2018-04-13T02:08:09.971Z,19.70
2018-04-13T02:10:37.112Z,30.00
2018-04-13T02:13:04.246Z,22.73
2018-04-13T02:15:32.129Z,26.77
2018-04-13T02:17:58.611Z,24.43
2018-04-13T02:20:24.996Z,24.70
2018-04-13T02:22:52.134Z,33.37
2018-04-13T02:25:20.023Z,32.57
2018-04-13T02:27:47.167Z,34.73
2018-04-13T02:30:14.316Z,31.27
2018-04-13T02:32:41.457Z,24.73
2018-04-13T02:35:07.845Z,43.93
2018-04-13T02:37:34.329Z,30.93
2018-04-13T02:40:01.493Z,27.17
2018-04-13T02:42:27.897Z,30.50
2018-04-13T02:44:54.299Z,28.40
2018-04-13T02:47:20.709Z,23.43
2018-04-13T02:49:47.136Z,32.33
2018-04-13T02:52:14.309Z,20.53
2018-04-13T02:54:40.704Z,30.93
2018-04-13T02:57:07.857Z,34.53
2018-04-13T02:59:35.007Z,25.50
2018-04-13T03:02:01.421Z,20.13
2018-04-13T03:04:27.831Z,32.80
2018-04-13T03:06:54.224Z,27.00
2018-04-13T03:09:20.620Z,25.37
2018-04-13T03:11:47.015Z,37.57
2018-04-13T03:14:13.414Z,29.33
2018-04-13T03:16:39.850Z,35.97
2018-04-13T03:19:06.245Z,23.63
2018-04-13T03:21:32.661Z,31.23
2018-04-13T03:23:59.047Z,33.07
2018-04-13T03:26:25.440Z,34.23
2018-04-13T03:28:51.908Z,34.50
2018-04-13T03:31:18.325Z,29.30
2018-04-13T03:33:45.472Z,25.60
2018-04-13T03:36:12.616Z,29.63
2018-04-13T03:38:39.010Z,26.17
2018-04-13T03:41:05.416Z,22.90
2018-04-13T03:43:31.842Z,30.07
2018-04-13T03:45:58.229Z,24.40
2018-04-13T03:48:24.695Z,32.53
2018-04-13T03:50:51.103Z,28.20
2018-04-13T03:53:17.502Z,40.60
2018-04-13T03:55:43.887Z,29.07
2018-04-13T03:58:11.027Z,26.13
2018-04-13T04:00:38.172Z,26.33
2018-04-13T04:03:04.630Z,35.87
2018-04-13T04:05:31.760Z,19.43
2018-04-13T04:07:58.895Z,23.80
2018-04-13T04:10:25.298Z,26.83
2018-04-13T04:12:51.719Z,38.47
2018-04-13T04:15:18.116Z,32.30
2018-04-13T04:17:45.263Z,30.70
2018-04-13T04:20:24.787Z,36.03
2018-04-13T04:23:13.246Z,31.20
2018-04-13T04:25:57.892Z,23.50
2018-04-13T04:28:24.339Z,24.87
2018-04-13T04:30:51.754Z,34.80
2018-04-13T04:33:18.164Z,35.40
2018-04-13T04:35:44.556Z,34.23
2018-04-13T04:38:10.985Z,60.80
2018-04-13T04:40:37.390Z,30.57
2018-04-13T04:43:03.786Z,35.77
2018-04-13T04:45:30.266Z,26.50
2018-04-13T04:47:57.294Z,38.00
2018-04-13T04:50:23.742Z,27.40
2018-04-13T04:52:50.206Z,37.13
2018-04-13T04:55:17.408Z,35.87
2018-04-13T04:57:43.834Z,25.57
2018-04-13T05:00:10.377Z,40.97
2018-04-13T05:02:36.822Z,29.77
2018-04-13T05:05:03.236Z,31.07
2018-04-13T05:07:29.650Z,25.10
2018-04-13T05:09:56.073Z,29.80
2018-04-13T05:12:23.208Z,23.40
2018-04-13T05:14:49.600Z,29.77
2018-04-13T05:17:16.009Z,60.63
2018-04-13T05:19:42.431Z,28.13
2018-04-13T05:22:08.851Z,21.00
2018-04-13T05:24:36.016Z,23.10
2018-04-13T05:27:02.404Z,40.90
2018-04-13T05:29:28.803Z,31.43
2018-04-13T05:31:55.200Z,31.53
2018-04-13T05:34:22.363Z,39.53
2018-04-13T05:36:48.795Z,28.93
2018-04-13T05:39:15.225Z,26.17
2018-04-13T05:41:41.622Z,46.03
2018-04-13T05:44:08.212Z,26.43
2018-04-13T05:46:34.621Z,29.03
2018-04-13T05:49:01.801Z,27.37
2018-04-13T05:51:28.230Z,28.43
2018-04-13T05:53:54.618Z,99.63
2018-04-13T05:56:21.756Z,80.27
2018-04-13T05:58:48.153Z,23.90
2018-04-13T06:01:14.542Z,27.77
2018-04-13T06:03:40.972Z,29.40
2018-04-13T06:06:08.198Z,27.60
2018-04-13T06:08:34.565Z,31.10
2018-04-13T06:11:01.698Z,22.13
2018-04-13T06:13:28.131Z,28.23
2018-04-13T06:15:54.563Z,29.60
2018-04-13T06:18:20.989Z,27.03
2018-04-13T06:20:47.400Z,28.00
2018-04-13T06:23:13.851Z,32.57
2018-04-13T06:25:40.336Z,25.43
2018-04-13T06:28:06.768Z,20.40
2018-04-13T06:30:33.399Z,19.70
2018-04-13T06:33:00.165Z,31.33
2018-04-13T06:35:26.585Z,21.57
2018-04-13T06:37:52.993Z,19.70
2018-04-13T06:40:19.460Z,22.30
2018-04-13T06:42:45.929Z,16.10
2018-04-13T06:45:12.379Z,15.93
2018-04-13T06:47:39.546Z,21.20
2018-04-13T06:50:05.990Z,23.53
2018-04-13T06:52:32.391Z,17.70
2018-04-13T06:54:58.804Z,20.87
2018-04-13T06:57:25.241Z,19.87
2018-04-13T06:59:51.725Z,20.33
2018-04-13T07:02:18.166Z,19.47
2018-04-13T07:04:44.624Z,30.57
2018-04-13T07:07:11.096Z,22.60
2018-04-13T07:09:38.248Z,21.60
2018-04-13T07:12:05.399Z,18.67
2018-04-13T07:14:32.544Z,20.43
2018-04-13T07:16:59.717Z,21.10
2018-04-13T07:19:26.104Z,21.10
2018-04-13T07:21:52.492Z,15.63
2018-04-13T07:24:18.938Z,19.50
2018-04-13T07:26:45.320Z,19.40
2018-04-13T07:29:11.715Z,15.83
2018-04-13T07:31:38.171Z,17.17
2018-04-13T07:34:04.645Z,18.40
2018-04-13T07:36:31.775Z,18.77
2018-04-13T07:38:58.916Z,19.53
2018-04-13T07:41:25.309Z,14.83
2018-04-13T07:43:51.708Z,12.93
2018-04-13T07:46:18.183Z,19.70
2018-04-13T07:48:44.583Z,15.97
2018-04-13T07:51:10.989Z,19.23
2018-04-13T07:53:38.170Z,11.40
2018-04-13T07:56:04.578Z,14.33
2018-04-13T07:58:31.723Z,14.43
2018-04-13T08:00:58.175Z,16.77
2018-04-13T08:03:24.576Z,14.40
2018-04-13T08:05:51.052Z,17.90
2018-04-13T08:08:17.525Z,17.67
2018-04-13T08:10:44.227Z,14.00
2018-04-13T08:13:11.181Z,18.13
2018-04-13T08:15:37.616Z,18.17
2018-04-13T08:18:04.120Z,20.13
2018-04-13T08:20:30.624Z,12.63
2018-04-13T08:22:57.827Z,16.17
2018-04-13T08:25:24.254Z,12.77
2018-04-13T08:27:50.721Z,13.57
2018-04-13T08:30:17.133Z,20.83
2018-04-13T08:32:43.521Z,8.40
2018-04-13T08:35:10.681Z,12.57
2018-04-13T08:37:38.035Z,20.60
2018-04-13T08:40:04.466Z,12.07
2018-04-13T08:42:30.894Z,12.37
2018-04-13T08:44:58.074Z,12.23
2018-04-13T08:47:24.553Z,6.20
2018-04-13T08:49:50.974Z,19.10
2018-04-13T08:52:17.376Z,21.23
2018-04-13T08:54:43.808Z,24.70
2018-04-13T08:57:10.291Z,12.83
2018-04-13T08:59:36.684Z,10.30
2018-04-13T09:02:03.088Z,9.70
2018-04-13T09:04:30.226Z,12.30
2018-04-13T09:06:57.362Z,8.60
2018-04-13T09:09:23.776Z,6.33
2018-04-13T09:11:50.191Z,11.93
2018-04-13T09:14:16.611Z,6.50
2018-04-13T09:16:43.007Z,13.60
2018-04-13T09:19:09.415Z,9.57
2018-04-13T09:21:35.817Z,9.90
2018-04-13T09:24:02.237Z,7.97
2018-04-13T09:26:28.622Z,4.30
2018-04-13T09:28:55.032Z,13.70
2018-04-13T09:31:21.451Z,13.27
2018-04-13T09:33:47.887Z,11.20
2018-04-13T09:36:14.309Z,9.23
2018-04-13T09:38:40.722Z,11.50
2018-04-13T09:41:07.153Z,17.97
2018-04-13T09:43:34.313Z,6.33
2018-04-13T09:46:00.738Z,13.77
2018-04-13T09:48:27.168Z,7.80
2018-04-13T09:50:53.590Z,9.73
2018-04-13T09:53:20.751Z,12.77
2018-04-13T09:55:47.884Z,6.00
2018-04-13T09:58:15.081Z,5.97
2018-04-13T10:00:41.528Z,6.30
2018-04-13T10:03:13.944Z,10.30
2018-04-13T10:05:41.826Z,5.10
2018-04-13T10:08:09.011Z,9.70
2018-04-13T10:10:35.410Z,14.87
2018-04-13T10:13:02.574Z,7.57
2018-04-13T10:15:28.986Z,12.70
2018-04-13T10:17:56.116Z,6.83
2018-04-13T10:20:28.311Z,9.63
2018-04-13T10:22:55.478Z,5.20
2018-04-13T10:25:21.917Z,6.67
2018-04-13T10:27:48.363Z,6.30
2018-04-13T10:30:14.767Z,5.23
2018-04-13T10:32:41.931Z,8.87
2018-04-13T10:35:08.430Z,9.33
2018-04-13T10:37:35.582Z,28.07
2018-04-13T10:40:02.764Z,13.23
2018-04-13T10:42:29.171Z,14.70
2018-04-13T10:44:56.315Z,7.43
2018-04-13T10:47:24.278Z,6.77
2018-04-13T10:49:51.408Z,4.13
2018-04-13T10:52:17.831Z,8.67
2018-04-13T10:54:44.252Z,6.13
2018-04-13T10:57:10.664Z,7.03
2018-04-13T10:59:37.136Z,10.77
2018-04-13T11:02:03.547Z,7.37
2018-04-13T11:04:29.946Z,7.90
2018-04-13T11:06:57.094Z,11.67
2018-04-13T11:09:24.237Z,7.10
2018-04-13T11:11:51.387Z,3.90
2018-04-13T11:14:18.553Z,8.67
2018-04-13T11:16:45.695Z,6.17
2018-04-13T11:19:12.871Z,9.87
2018-04-13T11:21:39.288Z,5.20
2018-04-13T11:24:06.429Z,6.67
2018-04-13T11:26:33.547Z,6.83
2018-04-13T11:28:59.948Z,6.67
2018-04-13T11:31:26.326Z,9.13
2018-04-13T11:33:52.712Z,5.60
2018-04-13T11:36:19.108Z,11.90
2018-04-13T11:38:46.360Z,4.47
2018-04-13T11:41:12.772Z,10.63
2018-04-13T11:43:40.652Z,6.50
2018-04-13T11:46:07.777Z,10.00
2018-04-13T11:48:34.159Z,4.70
2018-04-13T11:51:01.412Z,4.73
2018-04-13T11:53:27.818Z,3.37
2018-04-13T11:55:54.957Z,6.00
2018-04-13T11:58:22.839Z,5.77
2018-04-13T12:00:50.017Z,7.90
2018-04-13T12:03:16.407Z,5.20
2018-04-13T12:05:43.553Z,17.77
2018-04-13T12:08:10.700Z,15.23
2018-04-13T12:10:37.104Z,28.13
2018-04-13T12:13:03.536Z,14.43
2018-04-13T12:15:29.954Z,13.83
2018-04-13T12:17:56.364Z,13.73
2018-04-13T12:20:23.505Z,13.13
2018-04-13T12:22:50.684Z,12.77
2018-04-13T12:25:17.079Z,7.60
2018-04-13T12:27:43.493Z,23.10
2018-04-13T12:30:09.908Z,15.60
2018-04-13T12:32:36.393Z,26.33
2018-04-13T12:35:03.533Z,13.90
2018-04-13T12:37:30.705Z,6.17
2018-04-13T12:39:57.827Z,6.60
2018-04-13T12:42:24.244Z,12.10
2018-04-13T12:44:50.626Z,18.10
2018-04-13T12:47:19.111Z,8.50
2018-04-13T12:49:45.513Z,12.63
2018-04-13T12:52:12.661Z,9.63
2018-04-13T12:54:41.983Z,21.40
2018-04-13T12:57:09.112Z,17.57
2018-04-13T12:59:36.814Z,9.13
2018-04-13T13:02:03.240Z,4.60
2018-04-13T13:04:29.643Z,4.03
2018-04-13T13:06:57.039Z,5.63
2018-04-13T13:09:23.466Z,4.30
2018-04-13T13:11:49.895Z,1.20
2018-04-13T13:14:16.295Z,7.83
2018-04-13T13:16:42.690Z,3.90
2018-04-13T13:19:09.093Z,3.00
2018-04-13T13:21:35.624Z,3.03
2018-04-13T13:24:02.085Z,1.20
2018-04-13T13:26:28.504Z,1.87
2018-04-13T13:28:54.921Z,1.93
2018-04-13T13:31:21.414Z,1.57
2018-04-13T13:33:47.824Z,2.50
2018-04-13T13:36:14.259Z,2.70
2018-04-13T13:38:40.670Z,3.40
2018-04-13T13:41:07.367Z,3.43
2018-04-13T13:43:34.541Z,2.37
2018-04-13T13:46:00.942Z,3.87
2018-04-13T13:48:28.166Z,1.60
2018-04-13T13:50:54.591Z,3.60
2018-04-13T13:53:20.994Z,6.10
2018-04-13T13:55:47.396Z,2.70
2018-04-13T13:58:13.803Z,1.77
2018-04-13T14:00:40.222Z,4.13
2018-04-13T14:03:06.629Z,3.23
2018-04-13T14:05:33.028Z,2.50
2018-04-13T14:08:00.178Z,2.87
2018-04-13T14:10:26.568Z,2.20
2018-04-13T14:12:52.967Z,2.20
2018-04-13T14:15:19.374Z,7.70
2018-04-13T14:17:46.526Z,4.67
2018-04-13T14:20:13.641Z,7.27
2018-04-13T14:22:40.048Z,1.70
2018-04-13T14:25:06.508Z,11.47
2018-04-13T14:27:32.908Z,2.13
2018-04-13T14:29:59.300Z,5.03
2018-04-13T14:32:25.700Z,4.60
2018-04-13T14:34:52.084Z,8.07
2018-04-13T14:37:19.262Z,2.10
2018-04-13T14:39:45.664Z,8.10
2018-04-13T14:42:12.807Z,1.57
2018-04-13T14:44:41.001Z,2.80
2018-04-13T14:47:07.381Z,2.37
2018-04-13T14:49:33.857Z,1.70
2018-04-13T14:52:00.288Z,1.70
2018-04-13T14:54:27.433Z,0.90
2018-04-13T14:56:54.579Z,1.67
2018-04-13T14:59:21.705Z,1.23
2018-04-13T15:01:48.116Z,2.73
2018-04-13T15:04:14.534Z,4.10
2018-04-13T15:06:40.932Z,1.33
2018-04-13T15:09:08.081Z,2.10
2018-04-13T15:11:35.206Z,5.80
2018-04-13T15:14:01.609Z,2.23
2018-04-13T15:16:28.036Z,1.37
2018-04-13T15:18:54.429Z,1.77
2018-04-13T15:21:21.550Z,1.80
2018-04-13T15:23:47.944Z,2.93
2018-04-13T15:26:14.360Z,1.53
2018-04-13T15:28:40.761Z,1.03
2018-04-13T15:31:07.238Z,5.17
2018-04-13T15:33:33.671Z,2.40
2018-04-13T15:36:00.076Z,2.27
2018-04-13T15:38:27.311Z,5.33
2018-04-13T15:40:53.718Z,2.60
2018-04-13T15:43:20.103Z,0.73
2018-04-13T15:45:47.266Z,0.80
2018-04-13T15:48:13.665Z,2.07
2018-04-13T15:50:40.803Z,2.03
2018-04-13T15:53:07.184Z,1.80
2018-04-13T15:55:33.584Z,1.60
2018-04-13T15:58:00.795Z,1.27
2018-04-13T16:00:27.218Z,1.87
2018-04-13T16:02:53.608Z,1.17
2018-04-13T16:05:20.737Z,1.03
2018-04-13T16:07:47.114Z,2.60
2018-04-13T16:10:13.514Z,1.50
2018-04-13T16:12:40.648Z,3.70
2018-04-13T16:15:07.092Z,6.73
2018-04-13T16:17:33.526Z,2.10
2018-04-13T16:19:59.972Z,3.70
2018-04-13T16:22:27.136Z,1.13
2018-04-13T16:24:54.269Z,0.93
2018-04-13T16:27:21.399Z,3.93
2018-04-13T16:29:47.822Z,1.80
2018-04-13T16:32:14.238Z,1.00
2018-04-13T16:34:40.623Z,1.20
2018-04-13T16:37:07.764Z,3.07
2018-04-13T16:39:34.967Z,11.50
2018-04-13T16:42:01.400Z,1.10
2018-04-13T16:44:27.829Z,2.20
2018-04-13T16:46:54.239Z,1.50
2018-04-13T16:49:20.692Z,2.03
2018-04-13T16:51:47.106Z,5.53
2018-04-13T16:54:14.240Z,4.77
2018-04-13T16:56:41.368Z,1.53
2018-04-13T16:59:07.775Z,14.90
2018-04-13T17:01:34.237Z,1.20
2018-04-13T17:04:00.647Z,2.47
2018-04-13T17:06:27.044Z,2.03
2018-04-13T17:08:53.441Z,7.60
2018-04-13T17:11:19.891Z,4.03
2018-04-13T17:13:47.035Z,3.50
2018-04-13T17:16:14.183Z,9.10
2018-04-13T17:18:41.318Z,5.30
2018-04-13T17:21:07.716Z,5.97
2018-04-13T17:23:34.839Z,2.20
2018-04-13T17:26:01.256Z,4.33
2018-04-13T17:28:28.401Z,8.70
2018-04-13T17:30:55.530Z,46.97
2018-04-13T17:33:21.930Z,14.47
2018-04-13T17:35:48.318Z,11.40
2018-04-13T17:38:15.451Z,5.20
2018-04-13T17:40:41.903Z,6.07
2018-04-13T17:43:09.070Z,9.60
2018-04-13T17:45:36.226Z,3.70
2018-04-13T17:48:02.630Z,5.37
2018-04-13T17:50:29.845Z,4.90
2018-04-13T17:52:56.270Z,6.67
2018-04-13T17:55:22.686Z,3.33
2018-04-13T17:57:49.088Z,3.33
2018-04-13T18:00:16.218Z,1.77
2018-04-13T18:02:42.668Z,3.03
2018-04-13T18:05:09.835Z,3.63
2018-04-13T18:07:36.277Z,3.67
2018-04-13T18:10:02.738Z,4.13
2018-04-13T18:12:29.128Z,4.53
2018-04-13T18:14:56.310Z,17.33
2018-04-13T18:17:22.703Z,7.73
2018-04-13T18:19:49.918Z,4.80
2018-04-13T18:22:16.307Z,6.60
2018-04-13T18:24:42.680Z,3.20
2018-04-13T18:27:09.071Z,3.97
2018-04-13T18:29:35.467Z,1.70
2018-04-13T18:32:01.878Z,1.63
2018-04-13T18:34:29.007Z,1.40
2018-04-13T18:36:55.429Z,4.27
2018-04-13T18:39:22.608Z,1.90
2018-04-13T18:41:49.039Z,1.83
2018-04-13T18:44:16.930Z,1.77
2018-04-13T18:46:43.311Z,4.20
2018-04-13T18:49:09.716Z,4.10
2018-04-13T18:51:36.856Z,5.50
2018-04-13T18:54:03.977Z,4.73
2018-04-13T18:56:30.433Z,2.40
2018-04-13T18:58:57.583Z,5.20
2018-04-13T19:01:24.723Z,4.57
2018-04-13T19:03:51.120Z,2.67
2018-04-13T19:06:17.537Z,3.00
2018-04-13T19:08:44.068Z,2.83
2018-04-13T19:11:10.461Z,3.57
2018-04-13T19:13:37.615Z,5.80
2018-04-13T19:16:04.113Z,3.23
2018-04-13T19:18:30.538Z,6.67
2018-04-13T19:20:56.980Z,3.20
2018-04-13T19:23:23.371Z,4.07
2018-04-13T19:25:50.506Z,7.90
2018-04-13T19:28:17.631Z,2.17
2018-04-13T19:30:44.026Z,2.33
2018-04-13T19:33:10.441Z,3.60
2018-04-13T19:35:36.872Z,2.50
2018-04-13T19:38:03.267Z,1.90
2018-04-13T19:40:29.694Z,4.43
2018-04-13T19:42:57.631Z,2.70
2018-04-13T19:45:24.133Z,8.03
2018-04-13T19:47:50.584Z,5.97
2018-04-13T19:50:17.044Z,3.30
2018-04-13T19:52:43.522Z,2.33
2018-04-13T19:55:09.936Z,2.17
2018-04-13T19:57:36.335Z,2.63
2018-04-13T20:00:02.784Z,6.93
2018-04-13T20:02:29.238Z,4.80
2018-04-13T20:04:57.267Z,9.30
2018-04-13T20:07:23.671Z,13.57
2018-04-13T20:09:50.225Z,6.70
2018-04-13T20:12:18.502Z,5.30
2018-04-13T20:14:44.897Z,6.80
2018-04-13T20:17:12.044Z,6.97
2018-04-13T20:19:38.440Z,8.87
2018-04-13T20:22:04.857Z,4.73
2018-04-13T20:24:31.269Z,3.90
2018-04-13T20:26:57.667Z,2.80
2018-04-13T20:29:24.099Z,7.30
2018-04-13T20:31:51.970Z,6.20
2018-04-13T20:34:18.392Z,3.87
2018-04-13T20:36:44.788Z,3.60
2018-04-13T20:39:12.170Z,2.40
2018-04-13T20:41:38.560Z,4.23
2018-04-13T20:44:05.020Z,4.40
2018-04-13T20:46:31.407Z,3.47
2018-04-13T20:48:58.535Z,4.63
2018-04-13T20:51:24.930Z,6.17
2018-04-13T20:53:52.104Z,4.40
2018-04-13T20:56:18.507Z,7.13
2018-04-13T20:58:44.918Z,5.03
2018-04-13T21:01:11.318Z,4.93
2018-04-13T21:03:37.715Z,8.47
2018-04-13T21:06:04.116Z,7.27
2018-04-13T21:08:30.588Z,5.60
2018-04-13T21:10:56.989Z,10.60
2018-04-13T21:13:23.412Z,3.20
2018-04-13T21:15:50.282Z,5.03
2018-04-13T21:18:16.781Z,3.80
2018-04-13T21:20:43.912Z,6.50
2018-04-13T21:23:11.044Z,3.40
2018-04-13T21:25:38.928Z,2.60
2018-04-13T21:28:05.322Z,6.30
2018-04-13T21:30:31.742Z,3.07
2018-04-13T21:32:58.131Z,5.97
2018-04-13T21:35:25.282Z,5.13
2018-04-13T21:37:52.436Z,3.70
2018-04-13T21:40:19.602Z,3.63
2018-04-13T21:42:46.727Z,3.00
2018-04-13T21:45:13.850Z,4.20
2018-04-13T21:47:40.251Z,4.70
2018-04-13T21:50:06.671Z,4.93
2018-04-13T21:52:33.043Z,3.50
2018-04-13T21:54:59.434Z,3.80
2018-04-13T21:57:25.819Z,8.23
2018-04-13T21:59:52.199Z,2.97
2018-04-13T22:02:18.602Z,8.27
2018-04-13T22:04:45.776Z,4.23
2018-04-13T22:07:12.174Z,2.90
2018-04-13T22:09:38.568Z,4.60
2018-04-13T22:12:05.021Z,4.27
2018-04-13T22:14:44.371Z,3.20
2018-04-13T22:17:10.848Z,4.60
2018-04-13T22:19:37.316Z,2.70
2018-04-13T22:22:04.560Z,4.23
2018-04-13T22:24:30.967Z,3.97
2018-04-13T22:26:57.370Z,3.60
2018-04-13T22:29:24.502Z,6.00
2018-04-13T22:31:50.922Z,3.90
2018-04-13T22:34:17.312Z,6.20
2018-04-13T22:36:43.700Z,4.13
2018-04-13T22:39:10.116Z,3.10
2018-04-13T22:41:36.519Z,7.57
2018-04-13T22:44:02.920Z,3.50
2018-04-13T22:46:30.059Z,4.03
2018-04-13T22:48:57.194Z,4.20
2018-04-13T22:51:23.607Z,3.07
2018-04-13T22:53:49.986Z,3.90
2018-04-13T22:56:17.102Z,3.83
2018-04-13T22:58:45.179Z,3.80
2018-04-13T23:01:13.049Z,5.70
2018-04-13T23:03:39.446Z,3.47
2018-04-13T23:06:05.835Z,5.17
2018-04-13T23:08:32.983Z,4.87
2018-04-13T23:11:00.118Z,4.00
2018-04-13T23:13:26.520Z,3.37
2018-04-13T23:15:52.931Z,5.43
2018-04-13T23:18:19.509Z,3.20
2018-04-13T23:20:45.901Z,5.07
2018-04-13T23:23:12.389Z,5.17
2018-04-13T23:25:39.630Z,4.60
2018-04-13T23:28:06.015Z,6.70
2018-04-13T23:30:33.171Z,4.97
2018-04-13T23:32:59.572Z,6.33
2018-04-13T23:35:26.706Z,5.00
2018-04-13T23:37:53.103Z,8.47
2018-04-13T23:40:19.513Z,6.40
2018-04-13T23:42:45.933Z,4.20
2018-04-13T23:45:12.330Z,5.27
2018-04-13T23:47:38.728Z,4.63
2018-04-13T23:50:05.143Z,3.93
2018-04-13T23:52:31.538Z,7.10
2018-04-13T23:54:58.667Z,7.53
2018-04-13T23:57:25.831Z,6.23
2018-04-13T23:59:53.010Z,6.20
